Time;durP1;ratioP1;P1;durP2;ratioP2;P2;SDS_P1;SDS_P2;PMS_P1;PMS_P2;Temp;Humidity;BMP_temperature;BMP_pressure;BME280_temperature;BME280_humidity;BME280_pressure;Samples;Min_cycle;Max_cycle;Signal;HPM_P1;HPM_P2
2022/11/20 00:01:38;;;;;;;28.48;4.25;;;;;;;;;;5094488;28;20035;-58
2022/11/20 00:04:03;;;;;;;21.60;4.38;;;;;;;;;;5110233;28;20024;-56
2022/11/20 00:06:29;;;;;;;23.98;4.65;;;;;;;;;;5094357;28;20457;-55
2022/11/20 00:08:56;;;;;;;17.90;3.78;;;;;;;;;;5094351;28;20014;-57
2022/11/20 00:11:22;;;;;;;19.50;4.15;;;;;;;;;;5109695;28;20023;-56
2022/11/20 00:13:49;;;;;;;25.27;5.22;;;;;;;;;;5094458;28;20103;-56
2022/11/20 00:16:15;;;;;;;25.13;4.80;;;;;;;;;;5094217;28;20404;-57
2022/11/20 00:18:44;;;;;;;23.30;5.13;;;;;;;;;;5094125;28;20038;-57
2022/11/20 00:21:14;;;;;;;20.50;4.03;;;;;;;;;;5093981;28;20032;-55
2022/11/20 00:23:39;;;;;;;18.13;4.80;;;;;;;;;;5109026;28;20024;-56
2022/11/20 00:26:06;;;;;;;20.55;5.47;;;;;;;;;;5109442;28;20393;-58
2022/11/20 00:28:31;;;;;;;22.20;4.38;;;;;;;;;;5093702;28;20468;-56
2022/11/20 00:31:03;;;;;;;27.40;5.53;;;;;;;;;;5109473;28;20016;-57
2022/11/20 00:33:29;;;;;;;16.65;3.92;;;;;;;;;;5093820;28;20529;-58
2022/11/20 00:35:58;;;;;;;10.07;3.30;;;;;;;;;;5094058;28;20024;-57
2022/11/20 00:38:24;;;;;;;29.02;5.13;;;;;;;;;;5109438;28;20043;-58
2022/11/20 00:40:54;;;;;;;27.13;4.82;;;;;;;;;;5109244;28;20024;-57
2022/11/20 00:43:19;;;;;;;16.60;4.18;;;;;;;;;;5093685;28;20020;-59
2022/11/20 00:45:45;;;;;;;26.38;4.72;;;;;;;;;;5109517;28;20020;-59
2022/11/20 00:48:10;;;;;;;19.50;4.57;;;;;;;;;;5109430;28;20046;-58
2022/11/20 00:50:35;;;;;;;23.17;4.93;;;;;;;;;;5109249;28;20020;-59
2022/11/20 00:53:01;;;;;;;18.00;3.70;;;;;;;;;;5108764;28;20048;-59
2022/11/20 00:55:26;;;;;;;17.23;3.72;;;;;;;;;;5092846;28;20456;-57
2022/11/20 00:57:51;;;;;;;17.98;4.45;;;;;;;;;;5108864;28;20122;-59
2022/11/20 01:00:17;;;;;;;14.75;4.18;;;;;;;;;;5093505;28;20109;-59
2022/11/20 01:02:42;;;;;;;29.58;6.53;;;;;;;;;;5108984;28;20016;-59
2022/11/20 01:05:07;;;;;;;21.85;5.78;;;;;;;;;;5108490;28;20039;-59
2022/11/20 01:07:33;;;;;;;24.85;6.50;;;;;;;;;;5108908;28;20508;-60
2022/11/20 01:09:58;;;;;;;25.58;5.22;;;;;;;;;;5108572;28;20494;-58
2022/11/20 01:12:24;;;;;;;24.75;5.13;;;;;;;;;;5108858;28;20047;-60
2022/11/20 01:14:49;;;;;;;15.38;4.07;;;;;;;;;;5108735;28;20031;-59
2022/11/20 01:17:14;;;;;;;21.67;5.32;;;;;;;;;;5092682;28;20107;-59
2022/11/20 01:19:40;;;;;;;19.75;4.97;;;;;;;;;;5093209;28;20107;-58
2022/11/20 01:22:05;;;;;;;25.40;6.32;;;;;;;;;;5108686;28;20425;-59
2022/11/20 01:24:30;;;;;;;30.02;6.75;;;;;;;;;;5108383;28;20115;-58
2022/11/20 01:26:56;;;;;;;27.48;5.10;;;;;;;;;;5093281;28;20017;-59
2022/11/20 01:29:23;;;;;;;19.60;5.90;;;;;;;;;;5093108;28;20035;-59
2022/11/20 01:31:48;;;;;;;26.85;6.30;;;;;;;;;;5092896;28;20055;-59
2022/11/20 01:34:15;;;;;;;17.90;4.93;;;;;;;;;;5107971;28;20062;-59
2022/11/20 01:36:41;;;;;;;15.40;4.22;;;;;;;;;;5108166;28;20026;-58
2022/11/20 01:39:11;;;;;;;18.55;5.63;;;;;;;;;;5090942;28;20107;-58
2022/11/20 01:44:21;;;;;;;24.58;5.35;;;;;;;;;;5092582;28;20035;-59
2022/11/20 01:46:56;;;;;;;18.80;5.05;;;;;;;;;;5108157;28;20380;-57
2022/11/20 01:49:45;;;;;;;25.85;5.50;;;;;;;;;;5108254;28;20020;-58
2022/11/20 01:52:22;;;;;;;18.88;4.90;;;;;;;;;;5085404;28;20514;-58
2022/11/20 01:54:54;;;;;;;21.67;5.15;;;;;;;;;;5092307;28;20024;-58
2022/11/20 01:57:20;;;;;;;20.63;5.75;;;;;;;;;;5091877;28;20052;-57
2022/11/20 01:59:48;;;;;;;14.40;4.45;;;;;;;;;;5092135;28;20534;-58
2022/11/20 02:02:14;;;;;;;19.95;4.68;;;;;;;;;;5092067;28;20055;-58
2022/11/20 02:04:40;;;;;;;19.42;5.47;;;;;;;;;;5092619;28;20056;-57
2022/11/20 02:07:05;;;;;;;22.85;5.05;;;;;;;;;;5092551;28;20016;-57
2022/11/20 02:09:30;;;;;;;22.35;5.72;;;;;;;;;;5092720;28;20520;-57
2022/11/20 02:11:56;;;;;;;21.08;5.35;;;;;;;;;;5107885;28;20381;-58
2022/11/20 02:14:22;;;;;;;22.95;5.40;;;;;;;;;;5092012;28;20023;-59
2022/11/20 02:16:48;;;;;;;18.50;4.80;;;;;;;;;;5107976;28;20051;-59
2022/11/20 02:19:21;;;;;;;16.65;3.65;;;;;;;;;;5091995;28;20123;-58
2022/11/20 02:21:55;;;;;;;17.38;4.72;;;;;;;;;;5092156;28;20461;-59
2022/11/20 02:24:21;;;;;;;19.02;4.50;;;;;;;;;;5092022;28;20024;-59
2022/11/20 02:26:51;;;;;;;8.27;2.33;;;;;;;;;;5107728;28;20581;-57
2022/11/20 02:29:22;;;;;;;19.58;5.05;;;;;;;;;;5091488;28;20028;-58
2022/11/20 02:31:48;;;;;;;16.45;4.22;;;;;;;;;;5107808;28;20027;-58
2022/11/20 02:34:13;;;;;;;17.88;4.10;;;;;;;;;;5107927;28;20020;-59
2022/11/20 02:36:39;;;;;;;16.80;4.72;;;;;;;;;;5092075;28;20489;-58
2022/11/20 02:39:05;;;;;;;14.05;4.10;;;;;;;;;;5091621;28;20516;-58
2022/11/20 02:41:37;;;;;;;13.98;4.25;;;;;;;;;;5107453;28;20158;-59
2022/11/20 02:44:03;;;;;;;18.77;4.75;;;;;;;;;;5092318;28;20023;-57
2022/11/20 02:46:29;;;;;;;16.02;4.40;;;;;;;;;;5109215;28;20518;-60
2022/11/20 02:48:54;;;;;;;18.55;4.85;;;;;;;;;;5111879;28;20100;-60
2022/11/20 02:51:20;;;;;;;12.75;4.03;;;;;;;;;;5111270;28;20384;-60
2022/11/20 02:53:45;;;;;;;16.67;4.05;;;;;;;;;;5111408;28;20020;-59
2022/11/20 02:56:10;;;;;;;14.27;3.53;;;;;;;;;;5095861;28;20508;-59
2022/11/20 02:58:36;;;;;;;20.55;4.25;;;;;;;;;;5095536;28;20110;-60
2022/11/20 03:01:01;;;;;;;12.73;3.72;;;;;;;;;;5095412;28;20023;-59
2022/11/20 03:03:27;;;;;;;13.70;3.65;;;;;;;;;;5095488;28;20032;-59
2022/11/20 03:05:52;;;;;;;12.77;3.47;;;;;;;;;;5095471;28;20107;-59
2022/11/20 03:08:17;;;;;;;8.45;2.75;;;;;;;;;;5095368;28;20095;-59
2022/11/20 03:10:43;;;;;;;6.22;2.65;;;;;;;;;;5095233;28;20012;-58
2022/11/20 03:13:08;;;;;;;15.20;3.85;;;;;;;;;;5111119;28;20426;-59
2022/11/20 03:15:35;;;;;;;10.90;3.70;;;;;;;;;;5096027;28;20024;-59
2022/11/20 03:18:00;;;;;;;15.57;3.65;;;;;;;;;;5094292;28;20032;-58
2022/11/20 03:20:26;;;;;;;15.60;4.65;;;;;;;;;;5111167;28;20369;-59
2022/11/20 03:22:53;;;;;;;13.07;3.70;;;;;;;;;;5110695;28;20115;-60
2022/11/20 03:25:18;;;;;;;10.70;3.17;;;;;;;;;;5094755;28;20094;-59
2022/11/20 03:27:44;;;;;;;10.07;2.78;;;;;;;;;;5110984;28;20556;-59
2022/11/20 03:30:09;;;;;;;10.35;3.92;;;;;;;;;;5095325;28;20023;-58
2022/11/20 03:32:35;;;;;;;7.82;2.38;;;;;;;;;;5095103;28;20632;-58
2022/11/20 03:35:00;;;;;;;10.80;2.55;;;;;;;;;;5095321;28;20507;-59
2022/11/20 03:37:25;;;;;;;13.48;3.08;;;;;;;;;;5110643;28;20064;-59
2022/11/20 03:39:51;;;;;;;12.93;4.25;;;;;;;;;;5110649;28;20020;-59
2022/11/20 03:45:00;;;;;;;14.82;2.67;;;;;;;;;;5094963;28;20035;-60
2022/11/20 03:47:25;;;;;;;11.23;3.60;;;;;;;;;;5110623;28;20023;-58
2022/11/20 03:49:51;;;;;;;12.85;2.95;;;;;;;;;;5094859;28;20012;-59
2022/11/20 03:52:16;;;;;;;11.90;3.75;;;;;;;;;;5110348;28;20024;-57
2022/11/20 03:54:41;;;;;;;9.90;3.33;;;;;;;;;;5094738;28;20020;-58
2022/11/20 03:57:07;;;;;;;16.25;3.45;;;;;;;;;;5093733;28;20048;-58
2022/11/20 03:59:33;;;;;;;12.93;3.00;;;;;;;;;;5110071;28;20055;-60
2022/11/20 04:01:58;;;;;;;15.23;3.95;;;;;;;;;;5110370;28;20024;-60
2022/11/20 04:04:24;;;;;;;10.32;3.10;;;;;;;;;;5110400;28;20495;-60
2022/11/20 04:06:49;;;;;;;11.73;2.95;;;;;;;;;;5110135;28;20159;-59
2022/11/20 04:09:15;;;;;;;12.27;2.80;;;;;;;;;;5094422;28;20473;-59
2022/11/20 04:11:40;;;;;;;11.10;3.20;;;;;;;;;;5094590;28;20020;-59
2022/11/20 04:14:11;;;;;;;13.13;3.90;;;;;;;;;;5110059;28;20051;-59
2022/11/20 04:16:37;;;;;;;8.45;2.47;;;;;;;;;;5094243;28;20031;-58
2022/11/20 04:19:04;;;;;;;7.68;2.67;;;;;;;;;;5109606;28;20031;-58
2022/11/20 04:21:29;;;;;;;5.57;1.92;;;;;;;;;;5109627;28;20031;-59
2022/11/20 04:23:56;;;;;;;8.50;3.00;;;;;;;;;;5110064;28;20016;-58
2022/11/20 04:26:23;;;;;;;8.95;2.58;;;;;;;;;;5109977;28;20061;-59
2022/11/20 04:28:49;;;;;;;8.32;2.20;;;;;;;;;;5109972;28;20020;-59
2022/11/20 04:31:16;;;;;;;12.02;2.97;;;;;;;;;;5093814;28;20028;-58
2022/11/20 04:33:41;;;;;;;8.77;2.90;;;;;;;;;;5093964;28;20042;-58
2022/11/20 04:36:10;;;;;;;7.45;1.98;;;;;;;;;;5093897;28;20429;-59
2022/11/20 04:38:35;;;;;;;9.23;2.97;;;;;;;;;;5109265;28;20127;-58
2022/11/20 04:41:02;;;;;;;8.73;2.38;;;;;;;;;;5109482;28;20047;-59
2022/11/20 04:43:28;;;;;;;6.63;2.38;;;;;;;;;;5109698;28;20456;-58
2022/11/20 04:45:54;;;;;;;10.35;2.33;;;;;;;;;;5094085;28;20024;-58
2022/11/20 04:48:20;;;;;;;6.65;2.28;;;;;;;;;;5109493;28;20361;-59
2022/11/20 04:50:45;;;;;;;7.80;2.17;;;;;;;;;;5109324;28;20034;-57
2022/11/20 04:53:11;;;;;;;10.00;2.10;;;;;;;;;;5109175;28;20099;-59
2022/11/20 04:55:36;;;;;;;6.72;2.40;;;;;;;;;;5093518;28;20016;-58
2022/11/20 04:58:02;;;;;;;8.27;2.20;;;;;;;;;;5093400;28;20044;-58
2022/11/20 05:00:27;;;;;;;9.60;2.13;;;;;;;;;;5093456;28;20529;-58
2022/11/20 05:02:52;;;;;;;9.52;3.10;;;;;;;;;;5093439;28;20023;-59
2022/11/20 05:05:18;;;;;;;6.20;2.05;;;;;;;;;;5093103;28;20047;-59
2022/11/20 05:07:43;;;;;;;10.85;2.60;;;;;;;;;;5093998;28;20012;-58
2022/11/20 05:10:09;;;;;;;9.05;2.47;;;;;;;;;;5093241;28;20400;-58
2022/11/20 05:12:34;;;;;;;9.02;2.22;;;;;;;;;;5093287;28;20103;-58
2022/11/20 05:14:59;;;;;;;8.75;2.67;;;;;;;;;;5092984;28;20016;-57
2022/11/20 05:17:25;;;;;;;8.98;2.45;;;;;;;;;;5108742;28;20042;-58
2022/11/20 05:19:50;;;;;;;8.57;2.70;;;;;;;;;;5093024;28;20377;-58
2022/11/20 05:22:15;;;;;;;7.07;2.17;;;;;;;;;;5093295;28;20137;-58
2022/11/20 05:24:41;;;;;;;9.00;2.97;;;;;;;;;;5108460;28;20020;-59
2022/11/20 05:27:06;;;;;;;5.75;2.22;;;;;;;;;;5093289;28;20038;-59
2022/11/20 05:29:32;;;;;;;16.92;3.20;;;;;;;;;;5092939;28;20020;-60
2022/11/20 05:31:57;;;;;;;9.02;2.50;;;;;;;;;;5092918;28;20465;-58
2022/11/20 05:34:22;;;;;;;13.10;2.33;;;;;;;;;;5093115;28;20388;-58
2022/11/20 05:36:48;;;;;;;4.70;1.90;;;;;;;;;;5091694;28;20116;-59
2022/11/20 05:39:13;;;;;;;8.00;2.03;;;;;;;;;;5092687;28;20159;-58
2022/11/20 05:41:39;;;;;;;8.48;1.80;;;;;;;;;;5092912;28;20020;-58
2022/11/20 05:44:04;;;;;;;7.32;2.65;;;;;;;;;;5092686;28;20024;-58
2022/11/20 05:46:29;;;;;;;5.10;1.98;;;;;;;;;;5092771;28;20014;-59
2022/11/20 05:48:55;;;;;;;7.38;2.25;;;;;;;;;;5092551;28;20016;-60
2022/11/20 05:51:21;;;;;;;6.13;1.90;;;;;;;;;;5107784;28;20020;-58
2022/11/20 05:53:46;;;;;;;9.82;2.40;;;;;;;;;;5108344;28;20020;-59
2022/11/20 05:56:13;;;;;;;7.28;2.35;;;;;;;;;;5107969;28;20059;-58
2022/11/20 05:58:38;;;;;;;6.28;2.00;;;;;;;;;;5092307;28;20031;-60
2022/11/20 06:01:05;;;;;;;2.78;0.82;;;;;;;;;;5107901;28;20430;-59
2022/11/20 06:03:30;;;;;;;3.55;1.63;;;;;;;;;;5107776;28;20065;-58
2022/11/20 06:05:58;;;;;;;10.15;2.20;;;;;;;;;;5107879;28;20013;-58
2022/11/20 06:08:23;;;;;;;1.70;0.45;;;;;;;;;;5092221;28;20051;-59
2022/11/20 06:10:49;;;;;;;4.60;2.00;;;;;;;;;;5108029;28;20051;-58
2022/11/20 06:13:14;;;;;;;8.00;1.98;;;;;;;;;;5092095;28;20024;-60
2022/11/20 06:15:39;;;;;;;7.47;1.58;;;;;;;;;;5107849;28;20016;-60
2022/11/20 06:18:05;;;;;;;8.55;2.55;;;;;;;;;;5107698;28;20482;-60
2022/11/20 06:20:30;;;;;;;7.78;1.83;;;;;;;;;;5091481;28;20034;-60
2022/11/20 06:22:55;;;;;;;7.45;2.30;;;;;;;;;;5107956;28;20023;-62
2022/11/20 06:25:21;;;;;;;6.95;2.13;;;;;;;;;;5092174;28;20020;-59
2022/11/20 06:27:46;;;;;;;6.82;2.50;;;;;;;;;;5092205;28;20035;-60
2022/11/20 06:30:12;;;;;;;9.07;2.55;;;;;;;;;;5107863;28;20170;-60
2022/11/20 06:32:37;;;;;;;5.43;2.13;;;;;;;;;;5107700;28;20024;-60
2022/11/20 06:35:03;;;;;;;8.43;2.90;;;;;;;;;;5091849;28;20052;-59
2022/11/20 06:37:28;;;;;;;7.03;2.80;;;;;;;;;;5092258;28;20023;-60
2022/11/20 06:39:53;;;;;;;11.68;2.55;;;;;;;;;;5107805;28;20028;-59
2022/11/20 06:42:19;;;;;;;8.05;2.10;;;;;;;;;;5092393;28;20017;-60
2022/11/20 06:44:44;;;;;;;7.47;2.47;;;;;;;;;;5090849;28;20047;-58
2022/11/20 06:47:09;;;;;;;8.48;2.30;;;;;;;;;;5091814;28;20032;-60
2022/11/20 06:49:36;;;;;;;9.18;3.17;;;;;;;;;;5107497;28;20472;-60
2022/11/20 06:52:02;;;;;;;6.43;2.63;;;;;;;;;;5091951;28;20059;-61
2022/11/20 06:54:28;;;;;;;12.45;2.70;;;;;;;;;;5092220;28;20452;-61
2022/11/20 06:56:54;;;;;;;7.70;2.55;;;;;;;;;;5107469;28;20127;-59
2022/11/20 06:59:19;;;;;;;10.73;2.53;;;;;;;;;;5091638;28;20119;-58
2022/11/20 07:01:45;;;;;;;10.57;2.80;;;;;;;;;;5107441;28;20035;-59
2022/11/20 07:04:10;;;;;;;8.15;2.78;;;;;;;;;;5107411;28;20024;-60
2022/11/20 07:06:36;;;;;;;11.30;2.30;;;;;;;;;;5091762;28;20021;-59
2022/11/20 07:09:01;;;;;;;10.10;2.53;;;;;;;;;;5090481;28;20036;-60
2022/11/20 07:11:27;;;;;;;7.25;2.03;;;;;;;;;;5107432;28;20483;-58
2022/11/20 07:13:52;;;;;;;5.20;2.20;;;;;;;;;;5091647;28;20047;-58
2022/11/20 07:16:17;;;;;;;6.68;2.10;;;;;;;;;;5107523;28;20035;-60
2022/11/20 07:18:43;;;;;;;10.52;2.30;;;;;;;;;;5091494;28;20028;-60
2022/11/20 07:21:09;;;;;;;3.65;1.15;;;;;;;;;;5090341;28;20031;-59
2022/11/20 07:23:35;;;;;;;9.80;2.55;;;;;;;;;;5107294;28;20024;-59
2022/11/20 07:26:07;;;;;;;9.65;2.33;;;;;;;;;;5107341;28;20020;-58
2022/11/20 07:28:32;;;;;;;6.75;2.47;;;;;;;;;;5091488;28;20500;-57
2022/11/20 07:30:58;;;;;;;8.90;2.33;;;;;;;;;;5106993;28;20074;-58
2022/11/20 07:33:24;;;;;;;3.95;1.45;;;;;;;;;;5092590;28;20067;-58
2022/11/20 07:35:49;;;;;;;7.60;2.20;;;;;;;;;;5111024;28;20063;-59
2022/11/20 07:38:15;;;;;;;9.55;2.40;;;;;;;;;;5095382;28;20020;-58
2022/11/20 07:40:40;;;;;;;6.60;2.30;;;;;;;;;;5095490;28;20028;-59
2022/11/20 07:43:05;;;;;;;8.63;2.83;;;;;;;;;;5094770;28;20020;-57
2022/11/20 07:45:31;;;;;;;5.50;2.15;;;;;;;;;;5110557;28;20112;-59
2022/11/20 07:47:56;;;;;;;4.82;2.10;;;;;;;;;;5110356;28;20048;-59
2022/11/20 07:50:21;;;;;;;7.43;2.88;;;;;;;;;;5093589;28;20020;-61
2022/11/20 07:52:47;;;;;;;6.38;2.20;;;;;;;;;;5110539;28;20111;-59
2022/11/20 07:55:12;;;;;;;6.60;2.10;;;;;;;;;;5110247;28;20016;-59
2022/11/20 07:57:38;;;;;;;6.38;1.80;;;;;;;;;;5094640;28;20624;-60
2022/11/20 08:00:04;;;;;;;7.85;2.17;;;;;;;;;;5110355;28;20070;-61
2022/11/20 08:02:30;;;;;;;6.80;2.22;;;;;;;;;;5110122;28;20016;-59
2022/11/20 08:04:56;;;;;;;5.95;2.00;;;;;;;;;;5094393;28;20012;-60
2022/11/20 08:07:21;;;;;;;5.90;1.70;;;;;;;;;;5110151;28;20020;-60
2022/11/20 08:09:47;;;;;;;8.00;2.28;;;;;;;;;;5094380;28;20015;-60
2022/11/20 08:15:05;;;;;;;3.83;1.55;;;;;;;;;;5093991;28;20031;-58
2022/11/20 08:17:30;;;;;;;6.82;1.98;;;;;;;;;;5109844;28;20028;-58
2022/11/20 08:19:55;;;;;;;4.95;1.83;;;;;;;;;;5094074;28;20158;-59
2022/11/20 08:22:21;;;;;;;3.20;1.55;;;;;;;;;;5094155;28;20032;-59
2022/11/20 08:24:46;;;;;;;8.75;2.15;;;;;;;;;;5093643;28;20012;-58
2022/11/20 08:27:12;;;;;;;5.78;1.58;;;;;;;;;;5109438;28;20020;-60
2022/11/20 08:29:37;;;;;;;5.60;1.70;;;;;;;;;;5109726;28;20016;-58
2022/11/20 08:32:02;;;;;;;3.67;1.35;;;;;;;;;;5093906;28;20366;-59
2022/11/20 08:34:28;;;;;;;4.80;1.55;;;;;;;;;;5109606;28;20017;-59
2022/11/20 08:36:53;;;;;;;4.47;1.08;;;;;;;;;;5109296;28;20089;-56
2022/11/20 08:39:19;;;;;;;8.57;1.58;;;;;;;;;;5109108;28;20028;-58
2022/11/20 08:41:44;;;;;;;3.70;1.45;;;;;;;;;;5109038;28;20035;-57
2022/11/20 08:44:10;;;;;;;5.47;1.35;;;;;;;;;;5108556;28;20020;-58
2022/11/20 08:46:37;;;;;;;2.35;1.23;;;;;;;;;;5093528;28;20027;-57
2022/11/20 08:49:03;;;;;;;3.15;0.98;;;;;;;;;;5093099;28;20099;-57
2022/11/20 08:51:32;;;;;;;4.07;1.35;;;;;;;;;;5093595;28;20095;-59
2022/11/20 08:53:57;;;;;;;7.07;1.80;;;;;;;;;;5093044;28;20024;-58
2022/11/20 08:56:22;;;;;;;1.25;0.70;;;;;;;;;;5093279;28;20048;-57
2022/11/20 08:58:49;;;;;;;2.85;1.23;;;;;;;;;;5092936;28;20040;-57
2022/11/20 09:01:14;;;;;;;1.48;1.00;;;;;;;;;;5093183;28;20027;-57
2022/11/20 09:03:40;;;;;;;2.10;0.70;;;;;;;;;;5109011;28;20020;-57
2022/11/20 09:06:06;;;;;;;2.58;1.50;;;;;;;;;;5108570;28;20023;-57
2022/11/20 09:08:32;;;;;;;4.13;1.50;;;;;;;;;;5108542;28;20390;-57
2022/11/20 09:10:58;;;;;;;3.25;1.33;;;;;;;;;;5108728;28;20020;-57
2022/11/20 09:13:24;;;;;;;2.50;1.10;;;;;;;;;;5108447;28;20479;-57
2022/11/20 09:15:54;;;;;;;3.85;1.55;;;;;;;;;;5093209;28;20016;-58
2022/11/20 09:18:19;;;;;;;3.72;1.33;;;;;;;;;;5108607;28;20077;-57
2022/11/20 09:20:45;;;;;;;3.17;1.15;;;;;;;;;;5092779;28;20023;-58
2022/11/20 09:23:10;;;;;;;4.05;1.38;;;;;;;;;;5108201;28;20376;-58
2022/11/20 09:25:35;;;;;;;2.63;1.20;;;;;;;;;;5091194;28;20016;-58
2022/11/20 09:28:01;;;;;;;3.78;1.45;;;;;;;;;;5092437;28;20056;-58
2022/11/20 09:30:27;;;;;;;2.67;1.05;;;;;;;;;;5092995;28;20600;-55
2022/11/20 09:32:52;;;;;;;3.47;1.98;;;;;;;;;;5108295;28;20369;-57
2022/11/20 09:35:18;;;;;;;5.28;1.70;;;;;;;;;;5092549;28;20035;-58
2022/11/20 09:37:43;;;;;;;3.72;1.30;;;;;;;;;;5092372;28;20024;-56
2022/11/20 09:40:22;;;;;;;7.22;1.58;;;;;;;;;;5108016;28;20024;-57
2022/11/20 09:42:54;;;;;;;3.35;1.17;;;;;;;;;;5108188;28;20020;-58
2022/11/20 09:45:22;;;;;;;6.50;2.00;;;;;;;;;;5107545;28;20555;-58
2022/11/20 09:47:48;;;;;;;3.05;0.98;;;;;;;;;;5092751;28;20113;-56
2022/11/20 09:50:25;;;;;;;1.90;0.98;;;;;;;;;;5108008;28;20453;-57
2022/11/20 09:52:58;;;;;;;2.88;1.30;;;;;;;;;;5092164;28;20023;-58
2022/11/20 09:55:24;;;;;;;2.47;1.20;;;;;;;;;;5091650;28;20024;-57
2022/11/20 09:57:51;;;;;;;2.05;1.10;;;;;;;;;;5091715;28;20138;-57
2022/11/20 10:00:17;;;;;;;2.72;1.10;;;;;;;;;;5107751;28;20069;-58
2022/11/20 10:02:46;;;;;;;3.63;1.23;;;;;;;;;;5092145;28;20103;-57
2022/11/20 10:05:19;;;;;;;3.17;1.48;;;;;;;;;;5092123;28;20044;-57
2022/11/20 10:08:09;;;;;;;3.28;1.10;;;;;;;;;;5107659;28;20081;-57
2022/11/20 10:10:46;;;;;;;4.65;1.50;;;;;;;;;;5085187;28;20547;-57
2022/11/20 10:13:31;;;;;;;4.18;1.85;;;;;;;;;;5107492;28;20020;-57
2022/11/20 10:16:11;;;;;;;3.38;0.82;;;;;;;;;;5089623;28;20027;-58
2022/11/20 10:19:09;;;;;;;4.55;1.90;;;;;;;;;;5092104;28;20043;-58
2022/11/20 10:21:53;;;;;;;4.72;1.55;;;;;;;;;;5067910;28;20148;-57
2022/11/20 10:24:25;;;;;;;2.85;1.67;;;;;;;;;;5107441;28;20020;-58
2022/11/20 10:27:26;;;;;;;3.80;1.20;;;;;;;;;;5091623;28;20110;-58
2022/11/20 10:30:25;;;;;;;2.95;1.20;;;;;;;;;;5052323;28;20024;-58
2022/11/20 10:33:25;;;;;;;4.47;1.23;;;;;;;;;;5079228;28;20052;-57
2022/11/20 10:35:51;;;;;;;3.78;1.05;;;;;;;;;;5069421;28;20587;-58
2022/11/20 10:38:19;;;;;;;2.47;1.27;;;;;;;;;;5081191;28;20040;-58
2022/11/20 10:40:46;;;;;;;2.42;0.93;;;;;;;;;;5091670;28;20016;-56
2022/11/20 10:43:12;;;;;;;2.80;0.88;;;;;;;;;;5106755;28;20511;-58
2022/11/20 10:45:57;;;;;;;0.80;0.25;;;;;;;;;;5106956;28;20114;-59
2022/11/20 10:48:24;;;;;;;0.17;0.17;;;;;;;;;;5107454;28;20081;-58
2022/11/20 10:51:09;;;;;;;0.00;0.00;;;;;;;;;;5091575;28;20086;-57
2022/11/20 10:53:56;;;;;;;0.00;0.00;;;;;;;;;;5069198;28;20123;-58
2022/11/20 10:56:29;;;;;;;0.65;0.65;;;;;;;;;;5091488;28;20052;-58
2022/11/20 10:59:13;;;;;;;0.10;0.10;;;;;;;;;;5089906;28;20178;-58
2022/11/20 11:01:40;;;;;;;0.17;0.17;;;;;;;;;;5106704;28;20024;-60
2022/11/20 11:04:12;;;;;;;0.00;0.00;;;;;;;;;;5107040;28;20017;-56
2022/11/20 11:06:42;;;;;;;0.10;0.10;;;;;;;;;;5107596;28;20020;-58
2022/11/20 11:09:15;;;;;;;0.00;0.00;;;;;;;;;;5110914;28;20020;-58
2022/11/20 11:11:40;;;;;;;0.00;0.00;;;;;;;;;;5110941;28;20133;-59
2022/11/20 11:14:06;;;;;;;0.00;0.00;;;;;;;;;;5095304;28;20066;-57
2022/11/20 11:16:31;;;;;;;0.00;0.00;;;;;;;;;;5095288;28;20008;-58
2022/11/20 11:19:10;;;;;;;0.00;0.00;;;;;;;;;;5095031;28;20035;-57
2022/11/20 11:21:41;;;;;;;1.52;0.88;;;;;;;;;;5094971;28;20023;-57
2022/11/20 11:24:15;;;;;;;0.00;0.00;;;;;;;;;;5094950;28;20016;-57
2022/11/20 11:26:50;;;;;;;0.00;0.00;;;;;;;;;;5110497;28;20473;-57
2022/11/20 11:29:17;;;;;;;0.00;0.00;;;;;;;;;;5110352;28;20495;-57
2022/11/20 11:31:43;;;;;;;0.00;0.00;;;;;;;;;;5094955;28;20020;-56
2022/11/20 11:34:12;;;;;;;0.20;0.20;;;;;;;;;;5095009;28;20016;-57
2022/11/20 11:36:37;;;;;;;0.00;0.00;;;;;;;;;;5110440;28;20023;-57
2022/11/20 11:39:03;;;;;;;0.00;0.00;;;;;;;;;;5094377;28;20028;-57
2022/11/20 11:41:31;;;;;;;0.00;0.00;;;;;;;;;;5094756;28;20019;-57
2022/11/20 11:46:54;;;;;;;0.00;0.00;;;;;;;;;;5094632;28;20019;-56
2022/11/20 11:49:20;;;;;;;0.00;0.00;;;;;;;;;;5094282;28;20095;-56
2022/11/20 11:52:04;;;;;;;0.55;0.20;;;;;;;;;;5094612;28;20456;-54
2022/11/20 11:54:30;;;;;;;0.00;0.00;;;;;;;;;;5094631;28;20043;-54
2022/11/20 11:56:57;;;;;;;0.00;0.00;;;;;;;;;;5094505;28;20472;-56
2022/11/20 11:59:28;;;;;;;0.00;0.00;;;;;;;;;;5094493;28;20035;-54
2022/11/20 12:01:59;;;;;;;0.00;0.00;;;;;;;;;;5094471;28;20012;-55
2022/11/20 12:04:24;;;;;;;0.10;0.10;;;;;;;;;;5094574;28;20020;-54
2022/11/20 12:07:13;;;;;;;0.00;0.00;;;;;;;;;;5110327;28;20022;-54
2022/11/20 12:09:43;;;;;;;0.00;0.00;;;;;;;;;;5087122;28;20488;-54
2022/11/20 12:12:10;;;;;;;0.00;0.00;;;;;;;;;;5094326;28;20031;-56
2022/11/20 12:14:37;;;;;;;0.10;0.10;;;;;;;;;;5094528;28;20022;-54
2022/11/20 12:17:03;;;;;;;0.00;0.00;;;;;;;;;;5109852;28;20052;-53
2022/11/20 12:19:34;;;;;;;0.00;0.00;;;;;;;;;;5109029;28;20059;-54
2022/11/20 12:22:05;;;;;;;4.18;0.47;;;;;;;;;;5109762;28;20024;-54
2022/11/20 12:24:46;;;;;;;0.00;0.00;;;;;;;;;;5109533;28;20031;-56
2022/11/20 12:27:30;;;;;;;0.80;0.57;;;;;;;;;;5093737;28;20028;-55
2022/11/20 12:30:01;;;;;;;0.00;0.00;;;;;;;;;;5109497;28;20016;-55
2022/11/20 12:32:46;;;;;;;0.00;0.00;;;;;;;;;;5093567;28;20031;-55
2022/11/20 12:35:20;;;;;;;0.00;0.00;;;;;;;;;;5093530;28;20028;-55
2022/11/20 12:38:04;;;;;;;0.00;0.00;;;;;;;;;;5093594;28;20075;-59
2022/11/20 12:40:41;;;;;;;0.00;0.00;;;;;;;;;;5109032;28;20024;-58
2022/11/20 12:46:12;;;;;;;0.00;0.00;;;;;;;;;;5093122;28;20066;-58
2022/11/20 12:48:52;;;;;;;0.00;0.00;;;;;;;;;;5093264;28;20024;-62
2022/11/20 12:51:25;;;;;;;0.10;0.08;;;;;;;;;;5109085;28;20123;-59
2022/11/20 12:53:53;;;;;;;0.00;0.00;;;;;;;;;;5093652;28;20024;-60
2022/11/20 12:56:38;;;;;;;0.00;0.00;;;;;;;;;;5093175;28;20044;-61
2022/11/20 12:59:22;;;;;;;0.55;0.50;;;;;;;;;;5093260;28;20526;-61
2022/11/20 13:01:51;;;;;;;0.00;0.00;;;;;;;;;;5108866;28;20449;-62
2022/11/20 13:04:22;;;;;;;0.00;0.00;;;;;;;;;;5108744;28;20016;-62
2022/11/20 13:06:48;;;;;;;1.10;0.20;;;;;;;;;;5093160;28;20016;-62
2022/11/20 13:09:15;;;;;;;0.10;0.10;;;;;;;;;;5093000;28;20023;-63
2022/11/20 13:11:43;;;;;;;0.00;0.00;;;;;;;;;;5093476;28;20100;-63
2022/11/20 13:14:18;;;;;;;0.00;0.00;;;;;;;;;;5093202;28;20048;-62
2022/11/20 13:16:46;;;;;;;2.13;1.98;;;;;;;;;;5092916;28;20031;-64
2022/11/20 13:19:13;;;;;;;0.65;0.32;;;;;;;;;;5092410;28;20062;-63
2022/11/20 13:21:39;;;;;;;0.17;0.17;;;;;;;;;;5092934;28;20020;-63
2022/11/20 13:24:06;;;;;;;0.17;0.17;;;;;;;;;;5093041;28;20027;-63
2022/11/20 13:26:31;;;;;;;0.00;0.00;;;;;;;;;;5092792;28;20024;-63
2022/11/20 13:29:09;;;;;;;0.00;0.00;;;;;;;;;;5092403;28;20008;-62
2022/11/20 13:31:35;;;;;;;0.00;0.00;;;;;;;;;;5092172;28;20024;-65
2022/11/20 13:34:03;;;;;;;0.00;0.00;;;;;;;;;;5107854;28;20013;-66
2022/11/20 13:36:30;;;;;;;0.05;0.05;;;;;;;;;;5092833;28;20077;-64
2022/11/20 13:38:56;;;;;;;0.00;0.00;;;;;;;;;;5108259;28;20392;-65
2022/11/20 13:41:31;;;;;;;0.00;0.00;;;;;;;;;;5092402;28;20095;-63
2022/11/20 13:44:08;;;;;;;0.00;0.00;;;;;;;;;;5107981;28;20031;-63
2022/11/20 13:46:38;;;;;;;0.00;0.00;;;;;;;;;;5092828;28;20059;-65
2022/11/20 13:49:09;;;;;;;0.30;0.30;;;;;;;;;;5092284;28;20012;-64
2022/11/20 13:51:46;;;;;;;0.00;0.00;;;;;;;;;;5092197;28;20107;-65
2022/11/20 13:54:14;;;;;;;0.57;0.57;;;;;;;;;;5092055;28;20345;-62
2022/11/20 13:56:39;;;;;;;0.22;0.05;;;;;;;;;;5092151;28;20481;-63
2022/11/20 13:59:25;;;;;;;0.20;0.15;;;;;;;;;;5091468;28;20085;-64
2022/11/20 14:01:53;;;;;;;0.00;0.00;;;;;;;;;;5082724;28;20161;-63
2022/11/20 14:04:21;;;;;;;0.30;0.30;;;;;;;;;;5092092;28;20027;-62
2022/11/20 14:06:48;;;;;;;0.00;0.00;;;;;;;;;;5091863;28;20035;-63
2022/11/20 14:09:34;;;;;;;0.03;0.00;;;;;;;;;;5091882;28;20020;-64
2022/11/20 14:12:00;;;;;;;0.35;0.20;;;;;;;;;;5090594;28;20058;-65
2022/11/20 14:14:26;;;;;;;0.00;0.00;;;;;;;;;;5107828;28;20469;-64
2022/11/20 14:16:52;;;;;;;1.45;1.35;;;;;;;;;;5107502;28;20124;-65
2022/11/20 14:19:21;;;;;;;0.00;0.00;;;;;;;;;;5106926;28;20094;-65
2022/11/20 14:21:52;;;;;;;0.00;0.00;;;;;;;;;;5092105;28;20051;-66
2022/11/20 14:24:21;;;;;;;0.00;0.00;;;;;;;;;;5092111;28;20106;-66
2022/11/20 14:26:47;;;;;;;0.00;0.00;;;;;;;;;;5092154;28;20100;-65
2022/11/20 14:29:16;;;;;;;0.00;0.00;;;;;;;;;;5091870;28;20051;-66
2022/11/20 14:31:43;;;;;;;0.00;0.00;;;;;;;;;;5091650;28;20081;-66
2022/11/20 14:34:16;;;;;;;0.00;0.00;;;;;;;;;;5091930;28;20035;-64
2022/11/20 14:36:42;;;;;;;0.00;0.00;;;;;;;;;;5090409;28;20383;-65
2022/11/20 14:39:11;;;;;;;0.00;0.00;;;;;;;;;;5091275;28;20036;-65
2022/11/20 14:41:36;;;;;;;0.30;0.28;;;;;;;;;;5091983;28;20499;-63
2022/11/20 14:44:02;;;;;;;0.25;0.25;;;;;;;;;;5111499;28;20020;-63
2022/11/20 14:46:28;;;;;;;0.00;0.00;;;;;;;;;;5095749;28;20472;-63
2022/11/20 14:48:57;;;;;;;0.00;0.00;;;;;;;;;;5095833;28;20024;-63
2022/11/20 14:51:25;;;;;;;0.17;0.17;;;;;;;;;;5095721;28;20469;-62
2022/11/20 14:53:51;;;;;;;0.00;0.00;;;;;;;;;;5111510;28;20020;-63
2022/11/20 14:56:21;;;;;;;0.00;0.00;;;;;;;;;;5095498;28;20047;-62
2022/11/20 14:58:55;;;;;;;0.00;0.00;;;;;;;;;;5095323;28;20111;-63